createdAt,value
2023-04-17T00:00:18.140Z,22.78
2023-04-17T00:01:18.124Z,22.82
2023-04-17T00:02:18.169Z,22.81
2023-04-17T00:03:18.183Z,22.83
2023-04-17T00:04:18.336Z,22.82
2023-04-17T00:05:18.180Z,22.80
2023-04-17T00:06:18.128Z,22.85
2023-04-17T00:07:18.174Z,22.83
2023-04-17T00:08:18.183Z,22.83
2023-04-17T00:09:18.224Z,22.83
2023-04-17T00:10:18.277Z,22.79
2023-04-17T00:11:18.824Z,22.87
2023-04-17T00:12:18.321Z,22.82
2023-04-17T00:13:18.347Z,22.81
2023-04-17T00:14:18.373Z,22.83
2023-04-17T00:15:18.413Z,22.87
2023-04-17T00:16:18.490Z,22.81
2023-04-17T00:17:18.534Z,22.87
2023-04-17T00:18:18.493Z,22.85
2023-04-17T00:19:18.526Z,22.77
2023-04-17T00:20:18.566Z,22.88
2023-04-17T00:21:18.587Z,22.88
2023-04-17T00:22:18.629Z,22.83
2023-04-17T00:23:18.644Z,22.82
2023-04-17T00:24:18.676Z,22.83
2023-04-17T00:25:18.699Z,22.85
2023-04-17T00:26:18.731Z,22.82
2023-04-17T00:27:18.773Z,22.83
2023-04-17T00:28:18.827Z,22.80
2023-04-17T00:29:18.832Z,22.83
2023-04-17T00:30:18.855Z,22.91
2023-04-17T00:31:19.038Z,22.83
2023-04-17T00:32:18.926Z,22.82
2023-04-17T00:33:18.962Z,22.85
2023-04-17T00:34:19.001Z,22.83
2023-04-17T00:35:19.036Z,22.86
2023-04-17T00:36:19.088Z,22.83
2023-04-17T00:37:19.095Z,22.85
2023-04-17T00:38:19.148Z,22.85
2023-04-17T00:39:19.175Z,22.88
2023-04-17T00:40:19.238Z,22.86
2023-04-17T00:41:19.270Z,22.85
2023-04-17T00:42:19.302Z,22.85
2023-04-17T00:43:19.332Z,22.89
2023-04-17T00:44:19.377Z,22.91
2023-04-17T00:45:19.413Z,22.86
2023-04-17T00:46:19.560Z,22.83
2023-04-17T00:47:19.503Z,22.86
2023-04-17T00:48:19.534Z,22.83
2023-04-17T00:49:19.554Z,22.86
2023-04-17T00:50:19.610Z,22.91
2023-04-17T00:51:19.620Z,22.89
2023-04-17T00:52:19.673Z,22.89
2023-04-17T00:53:19.700Z,22.85
2023-04-17T00:54:19.726Z,22.83
2023-04-17T00:55:19.763Z,22.82
2023-04-17T00:56:19.798Z,22.88
2023-04-17T00:57:19.836Z,22.88
2023-04-17T00:58:19.866Z,22.83
2023-04-17T00:59:19.901Z,22.86
2023-04-17T01:00:19.942Z,22.82
2023-04-17T01:01:20.097Z,22.83
2023-04-17T01:02:20.003Z,22.88
2023-04-17T01:03:20.092Z,22.82
2023-04-17T01:04:20.062Z,22.86
2023-04-17T01:05:19.920Z,22.89
2023-04-17T01:06:19.909Z,22.86
2023-04-17T01:07:19.953Z,22.88
2023-04-17T01:08:19.948Z,22.85
2023-04-17T01:09:19.924Z,22.86
2023-04-17T01:10:19.933Z,22.85
2023-04-17T01:11:19.929Z,22.85
2023-04-17T01:12:19.981Z,22.83
2023-04-17T01:13:19.927Z,22.83
2023-04-17T01:14:19.944Z,22.88
2023-04-17T01:15:19.945Z,22.86
2023-04-17T01:16:20.016Z,22.86
2023-04-17T01:17:20.028Z,22.85
2023-04-17T01:18:20.046Z,22.89
2023-04-17T01:19:20.186Z,22.91
2023-04-17T01:20:20.198Z,22.88
2023-04-17T01:21:20.189Z,22.89
2023-04-17T01:22:20.256Z,22.80
2023-04-17T01:23:20.219Z,22.86
2023-04-17T01:24:20.226Z,22.83
2023-04-17T01:25:20.278Z,22.83
2023-04-17T01:26:20.298Z,22.82
2023-04-17T01:27:20.310Z,22.85
2023-04-17T01:28:20.404Z,22.85
2023-04-17T01:29:20.372Z,22.82
2023-04-17T01:30:20.407Z,22.86
2023-04-17T01:31:20.479Z,22.83
2023-04-17T01:32:20.491Z,22.83
2023-04-17T01:33:20.515Z,22.83
2023-04-17T01:34:20.554Z,22.86
2023-04-17T01:35:20.581Z,22.86
2023-04-17T01:36:20.631Z,22.77
2023-04-17T01:37:20.642Z,22.82
2023-04-17T01:38:20.699Z,22.83
2023-04-17T01:39:20.702Z,22.82
2023-04-17T01:40:20.731Z,22.83
2023-04-17T01:41:20.772Z,22.85
2023-04-17T01:42:20.801Z,22.89
2023-04-17T01:43:20.832Z,22.85
2023-04-17T01:44:20.884Z,22.86
2023-04-17T01:45:20.919Z,22.86
2023-04-17T01:46:20.949Z,22.85
2023-04-17T01:47:21.030Z,22.85
2023-04-17T01:48:21.030Z,22.88
2023-04-17T01:49:21.036Z,22.86
2023-04-17T01:50:21.070Z,22.85
2023-04-17T01:51:21.142Z,22.85
2023-04-17T01:52:21.140Z,22.83
2023-04-17T01:53:21.165Z,22.85
2023-04-17T01:54:21.287Z,22.91
2023-04-17T01:55:21.252Z,22.86
2023-04-17T01:56:21.332Z,22.89
2023-04-17T01:57:21.336Z,22.85
2023-04-17T01:58:21.353Z,22.91
2023-04-17T01:59:21.386Z,22.86
2023-04-17T02:00:21.432Z,22.88
2023-04-17T02:01:21.496Z,22.88
2023-04-17T02:02:21.589Z,22.89
2023-04-17T02:03:21.649Z,22.85
2023-04-17T02:04:21.672Z,22.89
2023-04-17T02:05:21.618Z,22.85
2023-04-17T02:06:21.661Z,22.80
2023-04-17T02:07:21.695Z,22.82
2023-04-17T02:08:21.710Z,22.84
2023-04-17T02:09:21.758Z,22.82
2023-04-17T02:10:21.789Z,22.86
2023-04-17T02:11:21.825Z,22.85
2023-04-17T02:12:21.850Z,22.82
2023-04-17T02:13:21.886Z,22.81
2023-04-17T02:14:21.926Z,22.83
2023-04-17T02:15:21.948Z,22.86
2023-04-17T02:16:22.068Z,22.88
2023-04-17T02:17:22.065Z,22.85
2023-04-17T02:18:22.038Z,22.88
2023-04-17T02:19:22.080Z,22.85
2023-04-17T02:20:22.095Z,22.86
2023-04-17T02:21:22.138Z,22.85
2023-04-17T02:22:22.180Z,22.85
2023-04-17T02:23:22.200Z,22.82
2023-04-17T02:24:22.225Z,22.85
2023-04-17T02:25:22.256Z,22.82
2023-04-17T02:26:22.308Z,22.88
2023-04-17T02:27:22.321Z,22.88
2023-04-17T02:28:22.405Z,22.82
2023-04-17T02:29:22.399Z,22.86
2023-04-17T02:30:22.426Z,22.86
2023-04-17T02:31:22.521Z,22.83
2023-04-17T02:32:22.530Z,22.77
2023-04-17T02:33:22.533Z,22.83
2023-04-17T02:34:22.594Z,22.88
2023-04-17T02:35:22.630Z,22.82
2023-04-17T02:36:22.647Z,22.85
2023-04-17T02:37:22.685Z,22.83
2023-04-17T02:38:22.720Z,22.84
2023-04-17T02:39:22.750Z,22.85
2023-04-17T02:40:22.786Z,22.83
2023-04-17T02:41:22.826Z,22.78
2023-04-17T02:42:22.858Z,22.85
2023-04-17T02:43:22.890Z,22.83
2023-04-17T02:44:22.935Z,22.82
2023-04-17T02:45:22.965Z,22.82
2023-04-17T02:46:23.073Z,22.85
2023-04-17T02:47:23.098Z,22.85
2023-04-17T02:48:23.074Z,22.82
2023-04-17T02:49:23.095Z,22.85
2023-04-17T02:50:23.117Z,22.85
2023-04-17T02:51:23.149Z,22.85
2023-04-17T02:52:23.173Z,22.89
2023-04-17T02:53:23.206Z,22.83
2023-04-17T02:54:23.232Z,22.83
2023-04-17T02:55:23.269Z,22.78
2023-04-17T02:56:23.304Z,22.82
2023-04-17T02:57:23.335Z,22.80
2023-04-17T02:58:23.364Z,22.80
2023-04-17T02:59:23.406Z,22.74
2023-04-17T03:00:23.457Z,22.80
2023-04-17T03:01:23.555Z,22.80
2023-04-17T03:02:23.569Z,22.80
2023-04-17T03:03:23.655Z,22.83
2023-04-17T03:04:23.691Z,22.78
2023-04-17T03:05:23.623Z,22.80
2023-04-17T03:06:23.649Z,22.82
2023-04-17T03:07:23.702Z,22.77
2023-04-17T03:08:23.732Z,22.80
2023-04-17T03:09:23.768Z,22.75
2023-04-17T03:10:23.778Z,22.81
2023-04-17T03:11:23.828Z,22.75
2023-04-17T03:12:23.880Z,22.74
2023-04-17T03:13:23.938Z,22.80
2023-04-17T03:14:23.980Z,22.78
2023-04-17T03:15:23.984Z,22.72
2023-04-17T03:16:24.022Z,22.75
2023-04-17T03:17:24.039Z,22.74
2023-04-17T03:18:23.985Z,22.70
2023-04-17T03:19:24.012Z,22.78
2023-04-17T03:20:23.984Z,22.74
2023-04-17T03:21:23.999Z,22.71
2023-04-17T03:22:23.987Z,22.75
2023-04-17T03:23:23.994Z,22.75
2023-04-17T03:24:23.990Z,22.77
2023-04-17T03:25:23.994Z,22.74
2023-04-17T03:26:24.004Z,22.69
2023-04-17T03:27:23.992Z,22.75
2023-04-17T03:28:24.000Z,22.77
2023-04-17T03:29:23.992Z,22.67
2023-04-17T03:30:24.047Z,22.77
2023-04-17T03:31:24.523Z,22.72
2023-04-17T03:32:24.104Z,22.75
2023-04-17T03:33:24.123Z,22.74
2023-04-17T03:34:24.178Z,22.75
2023-04-17T03:35:24.200Z,22.75
2023-04-17T03:36:24.236Z,22.74
2023-04-17T03:37:24.284Z,22.74
2023-04-17T03:38:24.295Z,22.77
2023-04-17T03:39:24.357Z,22.75
2023-04-17T03:40:24.404Z,22.74
2023-04-17T03:41:24.358Z,22.72
2023-04-17T03:42:24.367Z,22.72
2023-04-17T03:43:24.364Z,22.74
2023-04-17T03:44:24.377Z,22.74
2023-04-17T03:45:24.373Z,22.75
2023-04-17T03:46:24.487Z,22.72
2023-04-17T03:47:24.406Z,22.77
2023-04-17T03:48:24.379Z,22.72
2023-04-17T03:49:24.380Z,22.71
2023-04-17T03:50:24.394Z,22.69
2023-04-17T03:51:24.425Z,22.75
2023-04-17T03:52:24.548Z,22.72
2023-04-17T03:53:24.488Z,22.68
2023-04-17T03:54:24.523Z,22.66
2023-04-17T03:55:24.557Z,22.69
2023-04-17T03:56:24.599Z,22.68
2023-04-17T03:57:24.626Z,22.69
2023-04-17T03:58:24.657Z,22.71
2023-04-17T03:59:24.694Z,22.72
2023-04-17T04:00:24.692Z,22.66
2023-04-17T04:01:24.699Z,22.69
2023-04-17T04:02:24.856Z,22.69
2023-04-17T04:03:24.923Z,22.71
2023-04-17T04:04:24.881Z,22.67
2023-04-17T04:05:24.856Z,22.72
2023-04-17T04:06:24.724Z,22.69
2023-04-17T04:07:24.736Z,22.72
2023-04-17T04:08:24.731Z,22.66
2023-04-17T04:09:24.730Z,22.66
2023-04-17T04:10:24.747Z,22.67
2023-04-17T04:11:24.781Z,22.69
2023-04-17T04:12:24.753Z,22.63
2023-04-17T04:13:24.849Z,22.66
2023-04-17T04:14:24.773Z,22.71
2023-04-17T04:15:24.777Z,22.66
2023-04-17T04:16:24.871Z,22.65
2023-04-17T04:17:24.956Z,22.72
2023-04-17T04:18:24.895Z,22.66
2023-04-17T04:19:24.915Z,22.69
2023-04-17T04:20:24.969Z,22.68
2023-04-17T04:21:24.993Z,22.68
2023-04-17T04:22:25.066Z,22.66
2023-04-17T04:23:25.134Z,22.66
2023-04-17T04:24:25.139Z,22.68
2023-04-17T04:25:25.182Z,22.74
2023-04-17T04:26:25.199Z,22.71
2023-04-17T04:27:25.283Z,22.68
2023-04-17T04:28:25.270Z,22.71
2023-04-17T04:29:25.404Z,22.74
2023-04-17T04:30:25.346Z,22.67
2023-04-17T04:31:25.431Z,22.68
2023-04-17T04:32:25.468Z,22.75
2023-04-17T04:33:25.465Z,22.69
2023-04-17T04:34:25.506Z,22.65
2023-04-17T04:35:25.543Z,22.67
2023-04-17T04:36:25.685Z,22.66
2023-04-17T04:37:25.690Z,22.67
2023-04-17T04:38:25.716Z,22.71
2023-04-17T04:39:25.730Z,22.71
2023-04-17T04:40:25.771Z,22.69
2023-04-17T04:41:25.682Z,22.74
2023-04-17T04:42:25.777Z,22.69
2023-04-17T04:43:25.712Z,22.72
2023-04-17T04:44:25.718Z,22.71
2023-04-17T04:45:25.825Z,22.66
2023-04-17T04:46:25.754Z,22.69
2023-04-17T04:47:25.765Z,22.66
2023-04-17T04:48:25.725Z,22.71
2023-04-17T04:49:25.727Z,22.69
2023-04-17T04:50:25.736Z,22.66
2023-04-17T04:51:25.733Z,22.74
2023-04-17T04:52:25.808Z,22.69
2023-04-17T04:53:25.841Z,22.67
2023-04-17T04:54:25.887Z,22.65
2023-04-17T04:55:25.997Z,22.66
2023-04-17T04:56:25.968Z,22.72
2023-04-17T04:57:26.137Z,22.67
2023-04-17T04:58:26.036Z,22.69
2023-04-17T04:59:26.075Z,22.69
2023-04-17T05:00:26.087Z,22.67
2023-04-17T05:01:26.205Z,22.71
2023-04-17T05:02:26.382Z,22.66
2023-04-17T05:03:26.256Z,22.60
2023-04-17T05:04:26.300Z,22.65
2023-04-17T05:05:26.174Z,22.67
2023-04-17T05:06:26.170Z,22.66
2023-04-17T05:07:26.193Z,22.69
2023-04-17T05:08:26.204Z,22.64
2023-04-17T05:09:26.208Z,22.63
2023-04-17T05:10:26.230Z,22.66
2023-04-17T05:11:26.239Z,22.69
2023-04-17T05:12:26.263Z,22.63
2023-04-17T05:13:26.304Z,22.69
2023-04-17T05:14:26.349Z,22.63
2023-04-17T05:15:26.387Z,22.67
2023-04-17T05:16:26.453Z,22.64
2023-04-17T05:17:26.516Z,22.63
2023-04-17T05:18:26.531Z,22.64
2023-04-17T05:19:26.569Z,22.63
2023-04-17T05:20:26.621Z,22.63
2023-04-17T05:21:27.090Z,22.71
2023-04-17T05:22:26.705Z,22.61
2023-04-17T05:23:26.759Z,22.63
2023-04-17T05:24:26.780Z,22.57
2023-04-17T05:25:26.831Z,22.64
2023-04-17T05:26:26.885Z,22.61
2023-04-17T05:27:26.967Z,22.58
2023-04-17T05:28:26.949Z,22.57
2023-04-17T05:29:26.997Z,22.59
2023-04-17T05:30:27.069Z,22.60
2023-04-17T05:31:27.163Z,22.60
2023-04-17T05:32:27.151Z,22.60
2023-04-17T05:33:27.260Z,22.60
2023-04-17T05:34:27.256Z,22.62
2023-04-17T05:35:27.291Z,22.60
2023-04-17T05:36:27.264Z,22.57
2023-04-17T05:37:27.242Z,22.54
2023-04-17T05:38:27.289Z,22.59
2023-04-17T05:39:27.280Z,22.56
2023-04-17T05:40:27.310Z,22.59
2023-04-17T05:41:27.294Z,22.56
2023-04-17T05:42:27.316Z,22.57
2023-04-17T05:43:27.320Z,22.54
2023-04-17T05:44:27.283Z,22.60
2023-04-17T05:45:27.371Z,22.54
2023-04-17T05:46:27.356Z,22.59
2023-04-17T05:47:27.369Z,22.56
2023-04-17T05:48:27.350Z,22.53
2023-04-17T05:49:27.331Z,22.60
2023-04-17T05:50:27.330Z,22.57
2023-04-17T05:51:27.367Z,22.56
2023-04-17T05:52:27.398Z,22.59
2023-04-17T05:53:27.440Z,22.54
2023-04-17T05:54:27.427Z,22.53
2023-04-17T05:55:27.444Z,22.57
2023-04-17T05:56:27.487Z,22.56
2023-04-17T05:57:27.481Z,22.62
2023-04-17T05:58:27.649Z,22.56
2023-04-17T05:59:27.517Z,22.56
2023-04-17T06:00:27.476Z,22.51
2023-04-17T06:01:27.479Z,22.56
2023-04-17T06:02:27.657Z,22.56
2023-04-17T06:03:27.768Z,22.60
2023-04-17T06:04:27.668Z,22.56
2023-04-17T06:05:27.583Z,22.59
2023-04-17T06:06:27.505Z,22.53
2023-04-17T06:07:27.933Z,22.54
2023-04-17T06:08:27.525Z,22.51
2023-04-17T06:09:27.594Z,22.56
2023-04-17T06:10:27.652Z,22.59
2023-04-17T06:11:27.671Z,22.53
2023-04-17T06:12:27.701Z,22.51
2023-04-17T06:13:27.771Z,22.50
2023-04-17T06:14:27.848Z,22.54
2023-04-17T06:15:28.187Z,22.50
2023-04-17T06:16:27.929Z,22.54
2023-04-17T06:17:27.993Z,22.48
2023-04-17T06:18:27.977Z,22.47
2023-04-17T06:19:27.926Z,22.51
2023-04-17T06:20:27.987Z,22.51
2023-04-17T06:21:27.928Z,22.53
2023-04-17T06:22:27.926Z,22.50
2023-04-17T06:23:27.938Z,22.51
2023-04-17T06:24:27.929Z,22.53
2023-04-17T06:25:27.938Z,22.53
2023-04-17T06:26:27.920Z,22.54
2023-04-17T06:27:27.927Z,22.51
2023-04-17T06:28:27.923Z,22.48
2023-04-17T06:29:27.907Z,22.51
2023-04-17T06:30:27.936Z,22.50
2023-04-17T06:31:27.992Z,22.51
2023-04-17T06:32:27.970Z,22.53
2023-04-17T06:33:28.024Z,22.50
2023-04-17T06:34:28.049Z,22.47
2023-04-17T06:35:28.125Z,22.53
2023-04-17T06:36:28.128Z,22.49
2023-04-17T06:37:28.154Z,22.47
2023-04-17T06:38:28.193Z,22.44
2023-04-17T06:39:28.234Z,22.50
2023-04-17T06:40:28.308Z,22.53
2023-04-17T06:41:28.330Z,22.47
2023-04-17T06:42:28.364Z,22.44
2023-04-17T06:43:28.373Z,22.47
2023-04-17T06:44:28.368Z,22.45
2023-04-17T06:45:28.408Z,22.44
2023-04-17T06:46:28.461Z,22.45
2023-04-17T06:47:28.614Z,22.40
2023-04-17T06:48:28.542Z,22.45
2023-04-17T06:49:28.581Z,22.44
2023-04-17T06:50:28.619Z,22.43
2023-04-17T06:51:28.666Z,22.40
2023-04-17T06:52:28.864Z,22.43
2023-04-17T06:53:28.738Z,22.44
2023-04-17T06:54:28.796Z,22.41
2023-04-17T06:55:28.845Z,22.45
2023-04-17T06:56:28.886Z,22.45
2023-04-17T06:57:28.898Z,22.41
2023-04-17T06:58:28.938Z,22.44
2023-04-17T06:59:28.989Z,22.40
2023-04-17T07:00:29.052Z,22.40
2023-04-17T07:01:29.196Z,22.41
2023-04-17T07:02:29.233Z,22.44
2023-04-17T07:03:29.262Z,22.47
2023-04-17T07:04:29.260Z,22.43
2023-04-17T07:05:29.276Z,22.41
2023-04-17T07:06:29.299Z,22.45
2023-04-17T07:07:29.327Z,22.41
2023-04-17T07:08:29.359Z,22.38
2023-04-17T07:09:29.429Z,22.41
2023-04-17T07:10:29.460Z,22.43
2023-04-17T07:11:29.513Z,22.38
2023-04-17T07:12:29.645Z,22.37
2023-04-17T07:13:29.573Z,22.45
2023-04-17T07:14:29.617Z,22.38
2023-04-17T07:15:29.762Z,22.40
2023-04-17T07:16:29.717Z,22.33
2023-04-17T07:17:29.754Z,22.37
2023-04-17T07:18:29.809Z,22.40
2023-04-17T07:19:29.823Z,22.35
2023-04-17T07:20:29.890Z,22.37
2023-04-17T07:21:29.904Z,22.35
2023-04-17T07:22:29.928Z,22.40
2023-04-17T07:23:29.972Z,22.40
2023-04-17T07:24:30.029Z,22.38
2023-04-17T07:25:30.109Z,22.32
2023-04-17T07:26:30.105Z,22.34
2023-04-17T07:27:30.141Z,22.37
2023-04-17T07:28:30.177Z,22.33
2023-04-17T07:29:30.208Z,22.34
2023-04-17T07:30:30.240Z,22.32
2023-04-17T07:31:30.338Z,22.34
2023-04-17T07:32:30.331Z,22.33
2023-04-17T07:33:30.324Z,22.28
2023-04-17T07:34:30.326Z,22.35
2023-04-17T07:35:30.361Z,22.34
2023-04-17T07:36:30.333Z,22.31
2023-04-17T07:37:30.329Z,22.31
2023-04-17T07:38:30.320Z,22.33
2023-04-17T07:39:30.342Z,22.31
2023-04-17T07:40:30.332Z,22.30
2023-04-17T07:41:30.346Z,22.28
2023-04-17T07:42:30.337Z,22.29
2023-04-17T07:43:30.336Z,22.27
2023-04-17T07:44:30.376Z,22.25
2023-04-17T07:45:30.373Z,22.22
2023-04-17T07:46:30.422Z,22.27
2023-04-17T07:47:30.383Z,22.24
2023-04-17T07:48:30.346Z,22.27
2023-04-17T07:49:30.355Z,22.24
2023-04-17T07:50:30.351Z,22.23
2023-04-17T07:51:30.352Z,22.27
2023-04-17T07:52:30.356Z,22.24
2023-04-17T07:53:30.359Z,22.21
2023-04-17T07:54:30.358Z,22.19
2023-04-17T07:55:30.374Z,22.22
2023-04-17T07:56:30.356Z,22.16
2023-04-17T07:57:30.568Z,22.22
2023-04-17T07:58:30.364Z,22.22
2023-04-17T07:59:30.439Z,22.19
2023-04-17T08:00:30.459Z,22.24
2023-04-17T08:01:30.511Z,22.16
2023-04-17T08:02:30.619Z,22.21
2023-04-17T08:03:30.794Z,22.21
2023-04-17T08:04:30.793Z,22.22
2023-04-17T08:05:30.677Z,22.20
2023-04-17T08:06:30.697Z,22.24
2023-04-17T08:07:30.756Z,22.21
2023-04-17T08:08:30.792Z,22.20
2023-04-17T08:09:30.823Z,22.19
2023-04-17T08:10:30.844Z,22.19
2023-04-17T08:11:30.890Z,22.24
2023-04-17T08:12:30.958Z,22.21
2023-04-17T08:13:30.959Z,22.22
2023-04-17T08:14:31.001Z,22.24
2023-04-17T08:15:31.049Z,22.25
2023-04-17T08:16:31.144Z,22.22
2023-04-17T08:17:31.161Z,22.26
2023-04-17T08:18:31.144Z,22.21
2023-04-17T08:19:31.176Z,22.22
2023-04-17T08:20:31.224Z,22.19
2023-04-17T08:21:31.255Z,22.25
2023-04-17T08:22:32.188Z,22.19
2023-04-17T08:23:31.364Z,22.21
2023-04-17T08:24:31.388Z,22.21
2023-04-17T08:25:31.429Z,22.22
2023-04-17T08:26:31.437Z,22.25
2023-04-17T08:27:31.446Z,22.21
2023-04-17T08:28:31.469Z,22.24
2023-04-17T08:29:31.524Z,22.24
2023-04-17T08:30:31.581Z,22.20
2023-04-17T08:31:31.750Z,22.24
2023-04-17T08:32:31.674Z,22.26
2023-04-17T08:33:31.641Z,22.25
2023-04-17T08:34:31.654Z,22.23
2023-04-17T08:35:31.626Z,22.19
2023-04-17T08:36:31.618Z,22.18
2023-04-17T08:37:31.622Z,22.23
2023-04-17T08:38:31.626Z,22.23
2023-04-17T08:39:31.647Z,22.21
2023-04-17T08:40:31.655Z,22.25
2023-04-17T08:41:31.656Z,22.24
2023-04-17T08:42:31.623Z,22.18
2023-04-17T08:43:31.619Z,22.19
2023-04-17T08:44:31.714Z,22.27
2023-04-17T08:45:31.956Z,22.17
2023-04-17T08:46:31.690Z,22.18
2023-04-17T08:47:31.656Z,22.20
2023-04-17T08:48:31.639Z,22.21
2023-04-17T08:49:31.660Z,22.18
2023-04-17T08:50:31.641Z,22.18
2023-04-17T08:51:31.661Z,22.22
2023-04-17T08:52:31.661Z,22.21
2023-04-17T08:53:31.665Z,22.27
2023-04-17T08:54:31.810Z,22.31
2023-04-17T08:55:31.670Z,22.29
2023-04-17T08:56:31.664Z,22.28
2023-04-17T08:57:31.669Z,22.29
2023-04-17T08:58:31.785Z,22.26
2023-04-17T08:59:31.682Z,22.22
2023-04-17T09:00:31.683Z,22.24
2023-04-17T09:01:31.735Z,22.20
2023-04-17T09:02:31.830Z,22.15
2023-04-17T09:03:31.854Z,22.21
2023-04-17T09:04:31.791Z,22.23
2023-04-17T09:05:31.706Z,22.18
2023-04-17T09:06:31.746Z,22.23
2023-04-17T09:07:31.789Z,22.21
2023-04-17T09:08:31.860Z,22.21
2023-04-17T09:09:31.852Z,22.17
2023-04-17T09:10:31.892Z,22.21
2023-04-17T09:11:31.902Z,22.15
2023-04-17T09:12:31.940Z,22.21
2023-04-17T09:13:31.966Z,22.17
2023-04-17T09:14:31.930Z,22.20
2023-04-17T09:15:31.940Z,22.21
2023-04-17T09:16:31.989Z,22.20
2023-04-17T09:17:31.941Z,22.12
2023-04-17T09:18:31.918Z,22.18
2023-04-17T09:19:34.642Z,22.21
2023-04-17T09:20:31.920Z,22.18
2023-04-17T09:21:31.880Z,22.14
2023-04-17T09:22:31.910Z,22.20
2023-04-17T09:23:31.890Z,22.21
2023-04-17T09:24:31.888Z,22.14
2023-04-17T09:25:31.924Z,22.15
2023-04-17T09:26:31.906Z,22.15
2023-04-17T09:27:31.900Z,22.15
2023-04-17T09:28:31.905Z,22.18
2023-04-17T09:29:31.936Z,22.15
2023-04-17T09:30:31.951Z,22.14
2023-04-17T09:31:31.984Z,22.15
2023-04-17T09:32:31.985Z,22.18
2023-04-17T09:33:31.959Z,22.20
2023-04-17T09:34:32.078Z,22.18
2023-04-17T09:35:31.940Z,22.15
2023-04-17T09:36:31.950Z,22.15
2023-04-17T09:37:31.977Z,22.14
2023-04-17T09:38:31.967Z,22.17
2023-04-17T09:39:31.946Z,22.12
2023-04-17T09:40:31.993Z,22.14
2023-04-17T09:41:31.951Z,22.15
2023-04-17T09:42:31.947Z,22.17
2023-04-17T09:43:31.963Z,22.14
2023-04-17T09:44:31.957Z,22.14
2023-04-17T09:45:31.967Z,22.14
2023-04-17T09:46:31.986Z,22.15
2023-04-17T09:47:31.998Z,22.15
2023-04-17T09:48:31.958Z,22.12
2023-04-17T09:49:32.084Z,22.09
2023-04-17T09:50:31.965Z,22.12
2023-04-17T09:51:31.929Z,22.17
2023-04-17T09:52:31.933Z,22.15
2023-04-17T09:53:31.918Z,22.14
2023-04-17T09:54:31.964Z,22.15
2023-04-17T09:55:31.928Z,22.14
2023-04-17T09:56:31.922Z,22.17
2023-04-17T09:57:31.903Z,22.14
2023-04-17T09:58:31.906Z,22.12
2023-04-17T09:59:31.924Z,22.14
2023-04-17T10:00:32.053Z,22.15
2023-04-17T10:01:32.090Z,22.15
2023-04-17T10:02:32.174Z,22.14
2023-04-17T10:03:33.623Z,22.12
2023-04-17T10:04:32.122Z,22.14
2023-04-17T10:05:32.116Z,22.15
2023-04-17T10:06:32.054Z,22.12
2023-04-17T10:07:32.049Z,22.12
2023-04-17T10:08:32.075Z,22.17
2023-04-17T10:09:32.055Z,22.17
2023-04-17T10:10:32.071Z,22.18
2023-04-17T10:11:32.083Z,22.15
2023-04-17T10:12:33.849Z,22.21
2023-04-17T10:13:32.050Z,22.14
2023-04-17T10:14:32.052Z,22.15
2023-04-17T10:15:32.074Z,22.09
2023-04-17T10:16:32.102Z,22.07
2023-04-17T10:17:32.200Z,22.14
2023-04-17T10:18:32.068Z,22.14
2023-04-17T10:19:32.059Z,22.15
2023-04-17T10:20:32.064Z,22.13
2023-04-17T10:21:32.163Z,22.15
2023-04-17T10:22:32.045Z,22.13
2023-04-17T10:23:32.072Z,22.12
2023-04-17T10:24:32.055Z,22.14
2023-04-17T10:25:32.048Z,22.12
2023-04-17T10:26:32.044Z,22.11
2023-04-17T10:27:32.038Z,22.15
2023-04-17T10:28:32.042Z,22.14
2023-04-17T10:29:32.069Z,22.14
2023-04-17T10:30:32.052Z,22.14
2023-04-17T10:31:32.054Z,22.15
2023-04-17T10:32:32.128Z,22.18
2023-04-17T10:33:32.016Z,22.15
2023-04-17T10:34:32.062Z,22.12
2023-04-17T10:35:32.091Z,22.16
2023-04-17T10:36:32.104Z,22.13
2023-04-17T10:37:32.121Z,22.12
2023-04-17T10:38:32.161Z,22.10
2023-04-17T10:39:32.176Z,22.17
2023-04-17T10:40:32.231Z,22.17
2023-04-17T10:41:32.245Z,22.12
2023-04-17T10:42:32.262Z,22.14
2023-04-17T10:43:32.251Z,22.17
2023-04-17T10:44:32.280Z,22.15
2023-04-17T10:45:32.340Z,22.16
2023-04-17T10:46:32.409Z,22.14
2023-04-17T10:47:32.373Z,22.14
2023-04-17T10:48:32.272Z,22.14
2023-04-17T10:49:32.225Z,22.16
2023-04-17T10:50:32.249Z,22.16
2023-04-17T10:51:32.231Z,22.18
2023-04-17T10:52:32.250Z,22.10
2023-04-17T10:53:32.232Z,22.10
2023-04-17T10:54:32.247Z,22.17
2023-04-17T10:55:32.224Z,22.11
2023-04-17T10:56:32.224Z,22.20
2023-04-17T10:57:32.216Z,22.16
2023-04-17T10:58:32.248Z,22.17
2023-04-17T10:59:32.224Z,22.14
2023-04-17T11:00:32.241Z,22.10
2023-04-17T11:01:32.399Z,22.14
2023-04-17T11:02:32.395Z,22.16
2023-04-17T11:03:32.359Z,22.10
2023-04-17T11:04:32.378Z,22.11
2023-04-17T11:05:32.388Z,22.16
2023-04-17T11:06:32.407Z,22.12
2023-04-17T11:07:32.429Z,22.11
2023-04-17T11:08:32.479Z,22.14
2023-04-17T11:09:32.483Z,22.14
2023-04-17T11:10:32.515Z,22.08
2023-04-17T11:11:43.438Z,22.14
2023-04-17T11:12:33.510Z,22.14
2023-04-17T11:13:32.488Z,22.11
2023-04-17T11:14:32.509Z,22.16
2023-04-17T11:15:32.505Z,22.13
2023-04-17T11:16:32.555Z,22.11
2023-04-17T11:17:32.478Z,22.16
2023-04-17T11:18:32.458Z,22.14
2023-04-17T11:19:32.472Z,22.17
2023-04-17T11:20:32.466Z,22.14
2023-04-17T11:21:32.502Z,22.11
2023-04-17T11:22:32.417Z,22.14
2023-04-17T11:23:32.426Z,22.14
2023-04-17T11:24:32.449Z,22.11
2023-04-17T11:25:32.405Z,22.13
2023-04-17T11:26:32.550Z,22.13
2023-04-17T11:27:32.430Z,22.07
2023-04-17T11:28:32.429Z,22.10
2023-04-17T11:29:32.526Z,22.13
2023-04-17T11:30:32.480Z,22.08
2023-04-17T11:31:32.547Z,22.10
2023-04-17T11:32:32.834Z,22.08
2023-04-17T11:33:32.571Z,22.14
2023-04-17T11:34:32.594Z,22.08
2023-04-17T11:35:32.595Z,22.07
2023-04-17T11:36:32.633Z,22.13
2023-04-17T11:37:32.644Z,22.08
2023-04-17T11:38:32.805Z,22.13
2023-04-17T11:39:32.702Z,22.10
2023-04-17T11:40:32.740Z,22.10
2023-04-17T11:41:32.786Z,22.04
2023-04-17T11:42:32.856Z,22.07
2023-04-17T11:43:32.828Z,22.11
2023-04-17T11:44:32.865Z,22.05
2023-04-17T11:45:32.879Z,22.10
2023-04-17T11:46:32.946Z,22.07
2023-04-17T11:47:32.916Z,22.07
2023-04-17T11:48:32.994Z,22.10
2023-04-17T11:49:32.985Z,22.08
2023-04-17T11:50:33.039Z,22.08
2023-04-17T11:51:33.014Z,22.10
2023-04-17T11:52:33.047Z,22.11
2023-04-17T11:53:33.062Z,22.07
2023-04-17T11:54:33.112Z,22.13
2023-04-17T11:55:33.185Z,22.13
2023-04-17T11:56:33.141Z,22.11
2023-04-17T11:57:33.231Z,22.10
2023-04-17T11:58:33.150Z,22.04
2023-04-17T11:59:33.150Z,22.07
2023-04-17T12:00:33.179Z,22.08
2023-04-17T12:01:33.174Z,22.07
2023-04-17T12:02:33.247Z,22.10
2023-04-17T12:03:33.333Z,22.14
2023-04-17T12:04:33.227Z,22.05
2023-04-17T12:05:33.153Z,22.11
2023-04-17T12:06:33.167Z,22.07
2023-04-17T12:07:33.123Z,22.04
2023-04-17T12:08:33.123Z,22.07
2023-04-17T12:09:33.225Z,22.02
2023-04-17T12:10:33.110Z,22.10
2023-04-17T12:11:33.165Z,22.07
2023-04-17T12:12:33.098Z,22.05
2023-04-17T12:13:33.117Z,22.05
2023-04-17T12:14:33.146Z,22.05
2023-04-17T12:15:33.138Z,22.05
2023-04-17T12:16:33.342Z,22.05
2023-04-17T12:17:33.245Z,22.10
2023-04-17T12:18:33.211Z,22.05
2023-04-17T12:19:33.249Z,22.07
2023-04-17T12:20:33.257Z,22.05
2023-04-17T12:21:33.296Z,22.08
2023-04-17T12:22:33.328Z,22.08
2023-04-17T12:23:33.335Z,22.08
2023-04-17T12:24:33.365Z,22.10
2023-04-17T12:25:33.376Z,22.08
2023-04-17T12:26:33.404Z,22.02
2023-04-17T12:27:33.368Z,22.04
2023-04-17T12:28:33.370Z,22.08
2023-04-17T12:29:43.814Z,22.07
2023-04-17T12:30:34.358Z,22.08
2023-04-17T12:31:33.388Z,22.13
2023-04-17T12:32:33.363Z,22.08
2023-04-17T12:33:33.335Z,22.08
2023-04-17T12:34:33.334Z,22.05
2023-04-17T12:35:33.338Z,22.11
2023-04-17T12:36:33.397Z,22.13
2023-04-17T12:37:33.317Z,22.08
2023-04-17T12:38:33.326Z,22.13
2023-04-17T12:39:33.309Z,22.10
2023-04-17T12:40:33.291Z,22.10
2023-04-17T12:41:33.296Z,22.10
2023-04-17T12:42:42.399Z,22.10
2023-04-17T12:43:33.278Z,22.10
2023-04-17T12:44:33.447Z,22.10
2023-04-17T12:45:33.301Z,22.13
2023-04-17T12:46:33.279Z,22.08
2023-04-17T12:47:33.279Z,22.10
2023-04-17T12:48:33.309Z,22.11
2023-04-17T12:49:33.243Z,22.07
2023-04-17T12:50:33.236Z,22.08
2023-04-17T12:51:33.227Z,22.10
2023-04-17T12:52:33.216Z,22.10